Time;durP1;ratioP1;P1;durP2;ratioP2;P2;SDS_P1;SDS_P2;PMS_P1;PMS_P2;Temp;Humidity;BMP_temperature;BMP_pressure;BME280_temperature;BME280_humidity;BME280_pressure;Samples;Min_cycle;Max_cycle;Signal;HPM_P1;HPM_P2
2023/12/16 00:02:09;;;;;;;6.18;3.55;;;;;;;0.88;84.80;101771.34;6301826;28;20052;-70
2023/12/16 00:05:10;;;;;;;11.18;4.18;;;;;;;0.74;85.46;101760.97;6307846;28;20086;-75
2023/12/16 00:08:11;;;;;;;8.50;3.90;;;;;;;0.88;85.70;101767.06;6309157;28;20048;-75
2023/12/16 00:11:13;;;;;;;6.45;3.65;;;;;;;0.89;85.47;101765.38;6313652;28;20399;-75
2023/12/16 00:14:14;;;;;;;7.13;3.77;;;;;;;0.54;86.41;101764.28;6315776;28;20048;-75
2023/12/16 00:17:14;;;;;;;6.30;3.53;;;;;;;0.54;87.11;101760.84;6306698;28;20056;-75
2023/12/16 00:20:16;;;;;;;6.18;4.03;;;;;;;0.52;87.48;101754.84;6306668;28;20048;-70
2023/12/16 00:23:16;;;;;;;7.30;3.97;;;;;;;0.48;87.52;101758.22;6306406;28;20060;-75
2023/12/16 00:26:18;;;;;;;6.95;3.60;;;;;;;0.51;87.99;101763.38;6319275;28;20052;-70
2023/12/16 00:29:19;;;;;;;7.32;3.55;;;;;;;0.49;87.57;101773.63;6315969;28;20035;-69
2023/12/16 00:32:20;;;;;;;5.22;3.13;;;;;;;0.62;88.31;101776.28;6314939;28;20148;-71
2023/12/16 00:35:21;;;;;;;7.80;3.88;;;;;;;0.59;87.85;101787.41;6316242;28;20072;-75
2023/12/16 00:38:22;;;;;;;5.97;3.55;;;;;;;0.79;87.26;101782.44;6308282;28;20408;-75
2023/12/16 00:41:25;;;;;;;10.32;4.70;;;;;;;0.48;87.26;101794.19;6318678;28;20091;-74
2023/12/16 00:44:26;;;;;;;13.63;4.38;;;;;;;0.45;88.34;101815.56;6299155;28;20411;-74
2023/12/16 00:47:26;;;;;;;8.00;4.82;;;;;;;0.53;88.02;101813.06;6309154;28;20055;-75
2023/12/16 00:50:27;;;;;;;7.43;3.90;;;;;;;0.55;87.92;101829.34;6320069;28;20036;-70
2023/12/16 00:53:28;;;;;;;6.95;3.78;;;;;;;0.57;87.39;101831.06;6316353;28;20052;-69
2023/12/16 00:56:29;;;;;;;9.10;3.95;;;;;;;0.53;87.81;101828.47;6306641;28;20056;-70
2023/12/16 00:59:30;;;;;;;9.10;3.83;;;;;;;0.55;87.65;101832.75;6302872;28;20052;-74
2023/12/16 01:02:31;;;;;;;9.35;4.75;;;;;;;0.57;86.95;101833.63;6318814;28;20056;-75
2023/12/16 01:05:31;;;;;;;7.38;4.40;;;;;;;0.51;88.08;101830.16;6316721;28;20052;-75
2023/12/16 01:08:33;;;;;;;7.43;3.50;;;;;;;0.55;88.23;101839.63;6312835;28;20121;-75
2023/12/16 01:11:34;;;;;;;8.23;5.13;;;;;;;0.44;89.13;101836.09;6319971;28;20058;-75
2023/12/16 01:14:35;;;;;;;7.43;4.25;;;;;;;0.66;88.75;101843.16;6316251;28;20048;-70
2023/12/16 01:17:36;;;;;;;8.30;4.22;;;;;;;0.55;88.43;101835.34;6302477;28;20052;-70
2023/12/16 01:20:36;;;;;;;7.75;4.00;;;;;;;0.87;87.83;101839.03;6307676;28;20040;-70
2023/12/16 01:23:37;;;;;;;9.27;4.18;;;;;;;0.88;86.89;101840.75;6321353;28;20055;-70
2023/12/16 01:26:38;;;;;;;8.68;4.43;;;;;;;0.96;86.15;101841.66;6320878;28;20491;-70
2023/12/16 01:29:39;;;;;;;6.32;4.30;;;;;;;0.94;85.88;101835.66;6313215;28;20045;-70
2023/12/16 01:32:42;;;;;;;9.35;4.95;;;;;;;0.93;85.41;101837.38;6296416;28;20482;-70
2023/12/16 01:35:46;;;;;;;5.50;3.22;;;;;;;0.74;85.36;101833.81;6297016;28;20045;-75
2023/12/16 01:38:46;;;;;;;8.13;3.97;;;;;;;0.75;86.07;101834.66;6314112;28;20056;-70
2023/12/16 01:41:47;;;;;;;7.03;3.55;;;;;;;0.79;85.73;101836.41;6320190;28;20101;-74
2023/12/16 01:44:48;;;;;;;5.78;4.10;;;;;;;0.69;85.74;101844.88;6304997;28;20097;-70
2023/12/16 01:47:49;;;;;;;10.68;4.63;;;;;;;0.94;86.16;101853.63;6320003;28;20055;-75
2023/12/16 01:50:50;;;;;;;6.05;3.15;;;;;;;0.94;85.15;101853.63;6313967;28;20052;-70
2023/12/16 01:53:51;;;;;;;6.57;3.67;;;;;;;0.98;84.92;101848.53;6307766;28;20472;-71
2023/12/16 01:56:59;;;;;;;7.10;4.32;;;;;;;0.97;85.53;101862.25;6313945;28;20055;-75
2023/12/16 02:00:03;;;;;;;5.78;4.03;;;;;;;0.95;85.33;101856.22;6316862;28;20431;-75
2023/12/16 02:03:07;;;;;;;8.68;4.18;;;;;;;0.93;85.79;101857.09;6315780;28;20062;-71
2023/12/16 02:06:08;;;;;;;10.00;4.30;;;;;;;0.92;86.19;101863.91;6306243;28;20556;-75
2023/12/16 02:09:13;;;;;;;6.05;3.53;;;;;;;0.86;85.71;101881.00;6319093;28;20044;-76
2023/12/16 02:12:14;;;;;;;11.85;3.97;;;;;;;0.63;86.43;101875.66;6311448;28;20178;-70
2023/12/16 02:15:15;;;;;;;9.63;5.53;;;;;;;0.71;87.70;101874.88;6309284;28;20049;-70
2023/12/16 02:18:16;;;;;;;7.22;3.95;;;;;;;0.69;87.30;101903.97;6301943;28;20153;-70
2023/12/16 02:21:17;;;;;;;11.05;4.78;;;;;;;0.78;87.62;101906.63;6302204;28;20391;-75
2023/12/16 02:24:18;;;;;;;11.18;5.03;;;;;;;0.86;86.73;101899.84;6301776;28;20052;-75
2023/12/16 02:27:19;;;;;;;6.95;4.40;;;;;;;1.13;86.39;101911.19;6314637;28;20076;-70
2023/12/16 02:30:20;;;;;;;8.18;3.95;;;;;;;1.01;85.43;101914.56;6300314;28;20667;-75
2023/12/16 02:33:21;;;;;;;7.97;4.57;;;;;;;0.96;85.66;101922.19;6297090;28;20496;-74
2023/12/16 02:36:23;;;;;;;5.40;3.88;;;;;;;0.87;85.29;101921.28;6307914;28;20105;-75
2023/12/16 02:39:26;;;;;;;6.07;3.63;;;;;;;0.89;86.19;101922.16;6303036;28;20491;-70
2023/12/16 02:42:27;;;;;;;6.65;3.47;;;;;;;0.99;85.76;101917.09;6296458;28;20464;-70
2023/12/16 02:45:28;;;;;;;7.53;3.92;;;;;;;0.92;85.36;101920.44;6301920;28;20048;-75
2023/12/16 02:48:29;;;;;;;8.68;3.85;;;;;;;0.90;84.98;101921.28;6301218;28;20048;-75
2023/12/16 02:51:30;;;;;;;9.05;4.05;;;;;;;1.07;84.43;101934.28;6301717;28;20468;-75
2023/12/16 02:54:31;;;;;;;7.93;4.18;;;;;;;0.94;84.19;101934.19;6306953;28;20044;-70
2023/12/16 02:57:32;;;;;;;4.93;3.40;;;;;;;1.02;83.79;101936.81;6304744;28;20096;-70
2023/12/16 03:00:33;;;;;;;8.95;5.03;;;;;;;0.95;83.92;101941.06;6305473;28;20124;-75
2023/12/16 03:03:37;;;;;;;9.63;3.80;;;;;;;1.00;84.41;101948.81;6305417;28;20052;-75
2023/12/16 03:06:44;;;;;;;4.80;3.50;;;;;;;0.96;84.11;101953.03;6320620;28;20048;-75
2023/12/16 03:09:47;;;;;;;7.05;3.72;;;;;;;0.94;83.14;101946.19;6324791;28;20511;-75
2023/12/16 03:12:48;;;;;;;5.85;3.67;;;;;;;1.00;83.42;101935.94;6324246;28;20101;-71
2023/12/16 03:15:49;;;;;;;7.97;4.25;;;;;;;1.18;82.74;101930.97;6318267;28;20052;-70
2023/12/16 03:18:53;;;;;;;5.53;3.30;;;;;;;1.22;82.43;101933.56;6322511;28;20407;-70
2023/12/16 03:21:57;;;;;;;8.15;4.03;;;;;;;1.22;81.86;101933.56;6306672;28;20043;-75
2023/12/16 03:24:58;;;;;;;6.05;3.83;;;;;;;1.09;82.25;101924.88;6315118;28;20105;-76
2023/12/16 03:27:59;;;;;;;7.22;4.30;;;;;;;1.00;82.36;101928.25;6323515;28;20087;-75
2023/12/16 03:30:59;;;;;;;8.32;4.75;;;;;;;1.04;82.18;101924.84;6309767;28;20050;-70
2023/12/16 03:34:00;;;;;;;8.68;4.35;;;;;;;1.04;82.15;101917.13;6323823;28;20106;-71
2023/12/16 03:37:01;;;;;;;10.55;4.95;;;;;;;0.94;82.23;101923.91;6305680;28;20060;-70
2023/12/16 03:40:03;;;;;;;9.88;4.88;;;;;;;0.95;82.76;101930.78;6302897;28;20051;-71
2023/12/16 03:43:04;;;;;;;9.93;5.30;;;;;;;0.88;82.79;101934.13;6311466;28;20059;-70
2023/12/16 03:46:07;;;;;;;9.70;4.97;;;;;;;0.90;82.71;101947.84;6312075;28;20463;-75
2023/12/16 03:49:08;;;;;;;9.95;5.07;;;;;;;0.88;82.80;101948.69;6318228;28;20059;-75
2023/12/16 03:52:12;;;;;;;13.43;6.13;;;;;;;0.74;83.05;101944.28;6304494;28;20044;-70
2023/12/16 03:55:13;;;;;;;13.02;5.93;;;;;;;0.74;83.03;101949.44;6320891;28;20141;-70
2023/12/16 03:58:13;;;;;;;11.15;5.88;;;;;;;0.63;83.54;101957.88;6298820;28;20060;-75
2023/12/16 04:01:14;;;;;;;10.60;5.78;;;;;;;0.54;83.96;101938.94;6306979;28;20070;-75
2023/12/16 04:04:15;;;;;;;14.55;5.72;;;;;;;0.61;84.20;101950.16;6312294;28;20052;-75
2023/12/16 04:07:16;;;;;;;13.65;6.13;;;;;;;0.63;84.21;101963.00;6306770;28;20058;-70
2023/12/16 04:10:20;;;;;;;17.10;6.50;;;;;;;0.52;84.28;101968.03;6324180;28;20048;-70
2023/12/16 04:13:20;;;;;;;14.70;7.50;;;;;;;0.43;84.34;101968.78;6320852;28;20051;-75
2023/12/16 04:16:21;;;;;;;13.60;7.03;;;;;;;0.43;84.35;101979.06;6319650;28;20048;-75
2023/12/16 04:19:22;;;;;;;16.90;7.47;;;;;;;0.46;85.03;101967.97;6305221;28;20052;-74
2023/12/16 04:22:23;;;;;;;11.10;5.22;;;;;;;0.42;84.50;101969.63;6299254;28;20048;-70
2023/12/16 04:25:26;;;;;;;10.63;5.90;;;;;;;0.41;85.06;101988.44;6315397;28;20055;-70
2023/12/16 04:28:27;;;;;;;9.65;4.72;;;;;;;0.29;85.19;101993.44;6319407;28;20388;-69
2023/12/16 04:31:28;;;;;;;10.20;4.95;;;;;;;0.33;86.00;101997.75;6304088;28;20087;-70
2023/12/16 04:34:29;;;;;;;8.88;5.25;;;;;;;0.39;85.98;101982.41;6301028;28;20094;-70
2023/12/16 04:37:30;;;;;;;8.52;4.60;;;;;;;0.43;86.09;101989.31;6297599;28;20056;-70
2023/12/16 04:40:31;;;;;;;7.00;4.35;;;;;;;0.36;85.91;101990.09;6299445;28;20463;-70
2023/12/16 04:43:35;;;;;;;11.57;5.25;;;;;;;0.34;86.23;101991.78;6312972;28;20063;-71
2023/12/16 04:46:38;;;;;;;8.27;5.25;;;;;;;0.39;86.46;101991.00;6323220;28;20105;-75
2023/12/16 04:49:41;;;;;;;13.35;5.03;;;;;;;0.28;86.15;101978.88;6323423;28;20067;-75
2023/12/16 04:52:44;;;;;;;9.10;4.55;;;;;;;0.27;85.87;101982.28;6305203;28;20048;-75
2023/12/16 04:55:47;;;;;;;8.90;4.65;;;;;;;0.22;85.38;101989.94;6314737;28;20066;-70
2023/12/16 04:58:48;;;;;;;8.20;5.10;;;;;;;0.19;84.98;101970.22;6310280;28;20055;-71
2023/12/16 05:01:49;;;;;;;12.52;6.18;;;;;;;0.11;85.59;101981.25;6302544;28;20139;-70
2023/12/16 05:04:50;;;;;;;12.48;7.05;;;;;;;0.09;86.41;101980.38;6312953;28;20102;-70
2023/12/16 05:07:51;;;;;;;13.25;6.85;;;;;;;0.09;86.23;101983.78;6320312;28;20052;-70
2023/12/16 05:10:52;;;;;;;17.13;6.95;;;;;;;0.11;87.00;101988.94;6307284;28;20539;-75
2023/12/16 05:13:53;;;;;;;11.68;5.95;;;;;;;0.16;86.82;101992.41;6319778;28;20130;-70
2023/12/16 05:16:54;;;;;;;16.38;6.35;;;;;;;0.08;85.82;102012.00;6314719;28;20410;-75
2023/12/16 05:19:57;;;;;;;13.50;6.72;;;;;;;-0.02;85.91;102026.44;6318276;28;20051;-75
2023/12/16 05:23:01;;;;;;;11.02;6.20;;;;;;;-0.02;86.34;102027.28;6319503;28;20048;-75
2023/12/16 05:26:03;;;;;;;10.13;6.50;;;;;;;-0.10;86.95;102031.44;6319924;28;20516;-70
2023/12/16 05:29:04;;;;;;;13.98;6.13;;;;;;;-0.12;87.20;102043.38;6310814;28;20044;-70
2023/12/16 05:32:06;;;;;;;11.82;6.43;;;;;;;-0.05;87.69;102046.91;6315735;28;20060;-70
2023/12/16 05:35:07;;;;;;;13.65;6.47;;;;;;;-0.06;88.66;102050.31;6320103;28;20094;-70
2023/12/16 05:38:08;;;;;;;12.48;6.53;;;;;;;-0.05;89.02;102034.91;6320629;28;20055;-70
2023/12/16 05:41:11;;;;;;;10.52;5.95;;;;;;;-0.05;89.07;102037.47;6312272;28;20051;-70
2023/12/16 05:44:13;;;;;;;12.95;5.93;;;;;;;0.01;89.43;102052.13;6306793;28;20056;-70
2023/12/16 05:47:16;;;;;;;11.55;5.95;;;;;;;-0.05;89.54;102058.03;6312618;28;20487;-75
2023/12/16 05:50:17;;;;;;;15.20;8.18;;;;;;;-0.10;89.73;102059.66;6316960;28;20073;-69
2023/12/16 05:53:17;;;;;;;19.15;10.25;;;;;;;0.00;90.37;102047.84;6310848;28;20139;-75
2023/12/16 05:56:18;;;;;;;16.77;8.70;;;;;;;-0.03;90.07;102048.63;6309320;28;20488;-70
2023/12/16 05:59:19;;;;;;;16.17;8.40;;;;;;;0.08;89.63;102055.63;6307277;28;20503;-70
2023/12/16 06:02:20;;;;;;;10.35;6.47;;;;;;;-0.07;90.76;102046.88;6305550;28;20094;-70
2023/12/16 06:05:22;;;;;;;14.32;7.38;;;;;;;0.05;90.91;102055.59;6307969;28;20066;-70
2023/12/16 06:08:23;;;;;;;15.77;8.75;;;;;;;-0.03;91.02;102070.88;6315970;28;20060;-75
2023/12/16 06:11:24;;;;;;;13.98;7.85;;;;;;;0.12;90.41;102068.53;6319229;28;20573;-75
2023/12/16 06:14:25;;;;;;;13.88;7.63;;;;;;;0.08;90.67;102073.59;6308652;28;20045;-71
2023/12/16 06:17:28;;;;;;;15.32;7.78;;;;;;;0.15;89.13;102080.56;6305364;28;20139;-70
2023/12/16 06:20:28;;;;;;;12.48;8.18;;;;;;;0.13;89.39;102097.66;6310014;28;20087;-70
2023/12/16 06:23:32;;;;;;;25.92;9.80;;;;;;;0.08;89.43;102102.69;6305844;28;20047;-75
2023/12/16 06:26:33;;;;;;;18.70;8.30;;;;;;;-0.01;89.69;102105.13;6318308;28;20075;-71
2023/12/16 06:29:34;;;;;;;18.38;9.50;;;;;;;0.04;90.27;102107.75;6319714;28;20043;-70
2023/12/16 06:32:37;;;;;;;14.90;7.50;;;;;;;0.15;90.09;102116.50;6316972;28;20484;-70
2023/12/16 06:35:38;;;;;;;18.60;8.90;;;;;;;0.13;89.57;102121.59;6304343;28;20060;-70
2023/12/16 06:38:39;;;;;;;18.98;10.52;;;;;;;0.13;90.79;102128.47;6311327;28;20093;-70
2023/12/16 06:41:40;;;;;;;14.00;7.38;;;;;;;0.25;90.55;102125.19;6325120;28;20051;-70
2023/12/16 06:44:42;;;;;;;12.68;8.40;;;;;;;0.23;90.03;102120.06;6308211;28;20051;-70
2023/12/16 06:47:43;;;;;;;14.05;7.63;;;;;;;0.32;90.78;102127.00;6315362;28;20075;-75
2023/12/16 06:50:44;;;;;;;12.00;6.70;;;;;;;0.22;90.74;102128.56;6307547;28;20387;-70
2023/12/16 06:53:47;;;;;;;15.27;7.25;;;;;;;0.31;90.96;102128.72;6312934;28;20055;-70
2023/12/16 06:56:48;;;;;;;12.93;6.65;;;;;;;0.46;89.70;102132.34;6318612;28;20056;-70
2023/12/16 06:59:49;;;;;;;11.82;5.82;;;;;;;0.64;89.92;102132.59;6310009;28;20139;-75
2023/12/16 07:02:49;;;;;;;16.88;7.43;;;;;;;0.64;89.43;102139.44;6314857;28;20071;-75
2023/12/16 07:05:50;;;;;;;18.45;9.73;;;;;;;0.68;89.31;102143.78;6319527;28;20076;-70
2023/12/16 07:08:52;;;;;;;17.10;8.48;;;;;;;0.87;88.56;102155.16;6306389;28;20057;-70
2023/12/16 07:11:55;;;;;;;14.05;7.20;;;;;;;0.92;88.12;102149.22;6324145;28;21000;-75
2023/12/16 07:14:56;;;;;;;13.88;6.28;;;;;;;0.94;87.99;102152.66;6324979;28;20185;-75
2023/12/16 07:17:57;;;;;;;15.35;8.57;;;;;;;1.09;87.88;102154.59;6314000;28;20060;-75
2023/12/16 07:20:58;;;;;;;12.23;7.60;;;;;;;1.19;87.02;102146.13;6300794;28;20480;-70
2023/12/16 07:23:59;;;;;;;13.30;7.88;;;;;;;1.23;86.49;102146.16;6309712;28;20381;-75
2023/12/16 07:27:00;;;;;;;18.10;7.95;;;;;;;1.41;86.57;102147.22;6317923;28;20056;-75
2023/12/16 07:30:00;;;;;;;14.20;7.03;;;;;;;1.53;86.02;102145.63;6324229;28;20074;-75
2023/12/16 07:33:01;;;;;;;15.85;8.15;;;;;;;1.40;85.54;102142.94;6323213;28;20056;-71
2023/12/16 07:36:05;;;;;;;12.00;6.47;;;;;;;1.65;85.22;102148.31;6322249;28;20048;-70
2023/12/16 07:39:06;;;;;;;11.52;6.38;;;;;;;1.86;84.62;102146.78;6324499;28;20048;-70
2023/12/16 07:42:06;;;;;;;11.77;7.82;;;;;;;1.91;84.37;102158.81;6307277;28;20053;-70
2023/12/16 07:45:08;;;;;;;17.25;8.20;;;;;;;2.08;83.73;102156.41;6299206;28;20598;-75
2023/12/16 07:48:09;;;;;;;15.32;9.23;;;;;;;2.25;83.62;102171.13;6303606;28;20048;-70
2023/12/16 07:51:17;;;;;;;19.30;9.48;;;;;;;2.27;82.40;102157.41;6303357;28;20048;-71
2023/12/16 07:54:18;;;;;;;13.95;7.85;;;;;;;2.30;82.05;102161.69;6298494;28;20106;-70
2023/12/16 07:57:19;;;;;;;14.82;8.23;;;;;;;2.46;82.13;102160.94;6299595;28;20060;-71
2023/12/16 08:00:20;;;;;;;16.33;7.75;;;;;;;2.53;81.35;102161.84;6299972;28;20045;-70
2023/12/16 08:03:26;;;;;;;12.63;7.65;;;;;;;2.72;80.35;102168.84;6322525;28;20052;-75
2023/12/16 08:06:27;;;;;;;16.05;7.55;;;;;;;2.97;79.14;102148.34;6312372;28;20051;-70
2023/12/16 08:09:31;;;;;;;17.77;9.98;;;;;;;2.93;78.52;102167.22;6323458;28;20124;-75
2023/12/16 08:12:32;;;;;;;28.58;10.55;;;;;;;2.95;79.42;102168.09;6322210;28;20051;-75
2023/12/16 08:15:34;;;;;;;35.80;14.25;;;;;;;3.07;78.78;102172.41;6322607;28;20055;-70
2023/12/16 08:18:34;;;;;;;48.03;18.93;;;;;;;3.10;78.27;102169.88;6319243;28;20541;-71
2023/12/16 08:21:35;;;;;;;19.52;10.02;;;;;;;3.31;77.72;102174.22;6298401;28;20048;-70
2023/12/16 08:24:36;;;;;;;12.30;8.30;;;;;;;3.44;77.53;102173.41;6296953;28;20052;-70
2023/12/16 08:27:37;;;;;;;22.35;11.32;;;;;;;3.45;76.64;102171.69;6317304;28;20101;-70
2023/12/16 08:30:38;;;;;;;23.75;14.07;;;;;;;3.94;75.74;102169.19;6321688;28;20419;-71
2023/12/16 08:33:39;;;;;;;20.50;10.82;;;;;;;4.09;75.03;102168.31;6323226;28;20484;-71
2023/12/16 08:36:41;;;;;;;27.73;14.30;;;;;;;4.13;73.74;102172.63;6321828;28;20463;-71
2023/12/16 08:39:42;;;;;;;18.40;8.80;;;;;;;4.16;73.52;102177.78;6321636;28;20412;-71
2023/12/16 08:42:43;;;;;;;10.52;6.80;;;;;;;4.25;72.69;102175.19;6322942;28;20048;-71
2023/12/16 08:45:44;;;;;;;20.10;7.00;;;;;;;4.04;72.12;102178.66;6321651;28;20513;-76
2023/12/16 08:48:47;;;;;;;11.55;7.05;;;;;;;4.27;71.71;102180.38;6315383;28;20089;-75
2023/12/16 08:51:49;;;;;;;13.30;6.88;;;;;;;4.32;71.06;102188.97;6305941;28;20377;-75
2023/12/16 08:54:49;;;;;;;15.70;6.95;;;;;;;4.40;71.08;102180.31;6310271;28;20048;-75
2023/12/16 08:57:51;;;;;;;11.70;5.78;;;;;;;4.35;70.71;102183.81;6321092;28;20052;-71
2023/12/16 09:00:55;;;;;;;9.70;5.53;;;;;;;4.22;71.96;102183.81;6321155;28;20508;-70
2023/12/16 09:03:56;;;;;;;8.85;4.75;;;;;;;4.60;71.80;102176.88;6322304;28;20052;-71
2023/12/16 09:07:04;;;;;;;16.23;7.63;;;;;;;4.43;72.00;102174.31;6322131;28;20052;-71
2023/12/16 09:10:06;;;;;;;19.33;9.00;;;;;;;4.59;72.74;102178.59;6321144;28;20123;-75
2023/12/16 09:13:07;;;;;;;25.42;12.07;;;;;;;4.42;73.62;102188.09;6322001;28;20122;-76
2023/12/16 09:16:08;;;;;;;20.83;12.05;;;;;;;4.69;73.14;102183.72;6310542;28;20492;-71
2023/12/16 09:19:09;;;;;;;25.73;11.77;;;;;;;4.83;72.86;102185.41;6308061;28;20040;-71
2023/12/16 09:22:12;;;;;;;20.88;10.50;;;;;;;4.67;72.65;102177.69;6321288;28;20063;-71
2023/12/16 09:25:13;;;;;;;22.13;11.15;;;;;;;4.67;71.82;102190.63;6321795;28;20411;-71
2023/12/16 09:28:15;;;;;;;18.10;10.43;;;;;;;4.89;72.38;102192.28;6319681;28;20055;-70
2023/12/16 09:31:19;;;;;;;22.05;10.45;;;;;;;4.76;72.81;102188.88;6300518;28;20059;-71
2023/12/16 09:34:20;;;;;;;18.08;10.07;;;;;;;4.76;72.07;102188.88;6320236;28;20052;-71
2023/12/16 09:37:21;;;;;;;20.90;9.63;;;;;;;4.94;73.18;102185.41;6321621;28;20617;-71
2023/12/16 09:40:22;;;;;;;19.35;9.68;;;;;;;4.93;72.63;102178.47;6309611;28;20067;-72
2023/12/16 09:43:26;;;;;;;21.05;10.13;;;;;;;4.84;72.28;102184.56;6296354;28;20053;-71
2023/12/16 09:46:32;;;;;;;16.27;9.35;;;;;;;4.89;72.34;102183.69;6296328;28;20519;-75
2023/12/16 09:49:33;;;;;;;19.30;11.43;;;;;;;4.89;73.23;102183.69;6300576;28;20499;-71
2023/12/16 09:52:36;;;;;;;20.45;10.73;;;;;;;5.35;71.44;102181.72;6294705;28;20135;-71
2023/12/16 09:55:37;;;;;;;38.10;18.13;;;;;;;5.47;71.03;102175.63;6300274;28;20044;-75
2023/12/16 09:58:44;;;;;;;22.23;12.85;;;;;;;5.39;68.77;102173.09;6306411;28;20058;-71
2023/12/16 10:01:52;;;;;;;14.50;7.70;;;;;;;5.53;67.72;102161.78;6319859;28;20040;-76
2023/12/16 10:04:58;;;;;;;14.93;9.07;;;;;;;5.30;67.50;102182.66;6321229;28;20547;-75
2023/12/16 10:08:04;;;;;;;15.15;8.80;;;;;;;5.52;68.22;102189.44;6309377;28;20044;-75
2023/12/16 10:11:05;;;;;;;16.42;7.28;;;;;;;5.59;66.80;102172.97;6317781;28;20088;-76
2023/12/16 10:14:07;;;;;;;12.55;7.20;;;;;;;5.64;65.49;102178.13;6321038;28;20146;-76
2023/12/16 10:17:07;;;;;;;16.90;7.80;;;;;;;5.63;66.29;102172.09;6319941;28;20424;-71
2023/12/16 10:20:09;;;;;;;15.20;7.47;;;;;;;5.69;66.30;102178.97;6320157;28;20044;-71
2023/12/16 10:23:12;;;;;;;20.35;8.20;;;;;;;5.71;64.36;102171.19;6319778;28;20133;-72
2023/12/16 10:26:13;;;;;;;14.13;7.75;;;;;;;5.41;66.33;102178.25;6320287;28;20166;-71
2023/12/16 10:29:18;;;;;;;20.67;10.43;;;;;;;5.65;68.41;102179.84;6316628;28;20044;-75
2023/12/16 10:32:19;;;;;;;22.90;11.85;;;;;;;5.72;69.61;102178.91;6294619;28;20072;-71
2023/12/16 10:35:23;;;;;;;17.83;10.25;;;;;;;5.45;70.35;102175.63;6305686;28;20048;-75
2023/12/16 10:38:27;;;;;;;21.58;10.70;;;;;;;5.42;68.90;102165.31;6294533;28;20051;-76
2023/12/16 10:41:30;;;;;;;16.23;9.95;;;;;;;5.91;68.73;102163.25;6296081;28;20045;-75
2023/12/16 10:44:31;;;;;;;18.27;9.57;;;;;;;5.45;68.46;102164.44;6295694;28;20551;-75
2023/12/16 10:47:34;;;;;;;20.05;10.65;;;;;;;5.55;67.69;102153.13;6295665;28;20057;-72
2023/12/16 10:50:40;;;;;;;20.65;11.48;;;;;;;6.00;68.00;102155.44;6295567;28;20049;-75
2023/12/16 10:53:50;;;;;;;21.55;10.63;;;;;;;5.84;66.98;102152.94;6295706;28;20044;-75
2023/12/16 10:57:29;;;;;;;23.88;10.88;;;;;;;6.00;66.18;102156.28;6295577;28;20360;-72
2023/12/16 11:00:34;;;;;;;19.55;9.43;;;;;;;6.02;66.60;102161.47;6275756;28;20106;-76
2023/12/16 11:03:41;;;;;;;18.33;8.32;;;;;;;6.17;65.19;102155.28;6295656;28;20053;-75
2023/12/16 11:07:05;;;;;;;16.05;8.52;;;;;;;6.54;64.63;102153.19;6294281;28;20098;-75
2023/12/16 11:10:10;;;;;;;17.85;8.48;;;;;;;6.27;63.21;102156.91;6298273;28;20048;-75
2023/12/16 11:13:11;;;;;;;14.40;7.88;;;;;;;6.29;63.73;102147.41;6299794;28;20045;-76
2023/12/16 11:16:19;;;;;;;16.52;7.88;;;;;;;6.38;63.85;102141.25;6300074;28;20253;-71
2023/12/16 11:19:25;;;;;;;14.93;7.45;;;;;;;6.42;63.02;102154.19;6298486;28;20049;-75
2023/12/16 11:22:26;;;;;;;13.48;6.72;;;;;;;6.31;61.30;102143.06;6302431;28;20492;-75
2023/12/16 11:25:27;;;;;;;13.27;6.85;;;;;;;6.50;61.08;102140.28;6302716;28;20088;-76
2023/12/16 11:28:28;;;;;;;11.88;5.85;;;;;;;6.56;61.34;102133.28;6299459;28;20412;-75
2023/12/16 11:31:35;;;;;;;9.67;5.77;;;;;;;6.74;60.90;102128.78;6298119;28;20575;-71
2023/12/16 11:34:43;;;;;;;14.27;6.05;;;;;;;6.93;60.26;102129.41;6299257;28;20044;-76
2023/12/16 11:37:44;;;;;;;9.50;6.10;;;;;;;6.78;60.89;102126.09;6298344;28;20098;-76
2023/12/16 11:40:52;;;;;;;13.23;6.82;;;;;;;6.84;62.12;102125.19;6297958;28;20083;-76
2023/12/16 11:43:54;;;;;;;14.40;6.60;;;;;;;6.82;61.65;102126.94;6303306;28;20492;-71
2023/12/16 11:46:55;;;;;;;14.35;6.15;;;;;;;6.60;62.24;102127.19;6313317;28;20507;-71
2023/12/16 11:49:59;;;;;;;12.05;5.88;;;;;;;6.64;62.62;102128.84;6310541;28;20106;-71
2023/12/16 11:53:01;;;;;;;11.23;6.05;;;;;;;6.78;62.40;102122.66;6324051;28;20051;-71
2023/12/16 11:56:02;;;;;;;12.25;6.95;;;;;;;6.68;62.71;102124.50;6324211;28;20055;-76
2023/12/16 11:59:04;;;;;;;10.15;5.97;;;;;;;6.99;62.11;102124.13;6323823;28;20082;-76
2023/12/16 12:02:06;;;;;;;15.93;5.68;;;;;;;7.07;61.99;102122.28;6324150;28;20083;-72
2023/12/16 12:05:11;;;;;;;10.40;5.18;;;;;;;6.99;61.37;102118.94;6322768;28;20083;-76
2023/12/16 12:08:12;;;;;;;11.32;5.78;;;;;;;7.01;61.78;102110.25;6323880;28;20131;-75
2023/12/16 12:11:16;;;;;;;9.93;5.82;;;;;;;7.03;62.03;102099.84;6323527;28;20044;-76
2023/12/16 12:14:17;;;;;;;11.68;6.82;;;;;;;7.20;61.53;102108.25;6323458;28;20117;-71
2023/12/16 12:17:21;;;;;;;12.93;6.67;;;;;;;6.76;60.93;102104.50;6320468;28;20105;-71
2023/12/16 12:20:22;;;;;;;11.45;6.35;;;;;;;6.91;60.58;102105.19;6310332;28;20285;-75
2023/12/16 12:23:23;;;;;;;12.38;6.15;;;;;;;6.98;59.38;102112.00;6302206;28;20051;-72
2023/12/16 12:26:24;;;;;;;14.95;6.53;;;;;;;7.04;59.70;102104.13;6322566;28;20040;-71
2023/12/16 12:29:25;;;;;;;12.68;5.95;;;;;;;6.57;58.35;102090.03;6314334;28;20136;-71
2023/12/16 12:32:28;;;;;;;8.27;4.93;;;;;;;7.08;58.29;102090.25;6313315;28;20154;-71
2023/12/16 12:35:30;;;;;;;8.10;4.50;;;;;;;6.89;58.26;102093.97;6317205;28;20484;-71
2023/12/16 12:38:35;;;;;;;5.47;3.30;;;;;;;6.81;56.74;102089.72;6311722;28;20486;-76
2023/12/16 12:41:36;;;;;;;6.95;3.55;;;;;;;7.03;58.72;102092.91;6321861;28;20062;-76
2023/12/16 12:44:38;;;;;;;7.20;3.78;;;;;;;6.89;58.64;102074.06;6321562;28;20480;-75
2023/12/16 12:47:39;;;;;;;7.35;3.88;;;;;;;7.03;59.97;102084.28;6309094;28;20052;-71
2023/12/16 12:50:41;;;;;;;8.23;4.55;;;;;;;6.92;61.42;102084.44;6300548;28;20041;-75
2023/12/16 12:53:42;;;;;;;;;;;;;;;7.05;60.92;102085.09;6330435;28;20048;-71
2023/12/16 12:56:43;;;;;;;11.80;5.22;;;;;;;6.75;60.50;102078.56;6297581;28;19994;-71
2023/12/16 12:59:44;;;;;;;8.77;5.32;;;;;;;6.74;59.93;102076.88;6308501;28;20056;-71
2023/12/16 13:02:45;;;;;;;11.65;4.85;;;;;;;6.69;59.36;102081.25;6296316;28;20048;-71
2023/12/16 13:05:46;;;;;;;5.70;3.63;;;;;;;6.70;57.29;102086.44;6297715;28;20059;-71
2023/12/16 13:08:46;;;;;;;6.07;3.30;;;;;;;6.83;57.87;102087.97;6303042;28;20405;-71
2023/12/16 13:11:47;;;;;;;7.22;3.92;;;;;;;6.72;58.50;102095.06;6303079;28;20409;-76
2023/12/16 13:14:48;;;;;;;7.00;4.18;;;;;;;6.50;58.13;102091.84;6302569;28;20059;-75
2023/12/16 13:17:49;;;;;;;7.35;4.63;;;;;;;6.59;58.49;102096.06;6303444;28;20052;-72
2023/12/16 13:20:50;;;;;;;7.03;3.88;;;;;;;6.71;59.00;102097.66;6299893;28;20051;-71
2023/12/16 13:23:51;;;;;;;6.53;3.95;;;;;;;6.84;59.23;102094.03;6297141;28;20059;-75
2023/12/16 13:26:52;;;;;;;9.52;4.70;;;;;;;6.50;60.40;102109.16;6301223;28;20052;-76
2023/12/16 13:29:53;;;;;;;7.05;3.90;;;;;;;6.53;59.97;102101.34;6301971;28;20050;-75
2023/12/16 13:32:54;;;;;;;8.60;3.80;;;;;;;6.65;60.66;102098.56;6309791;28;20049;-71
2023/12/16 13:35:55;;;;;;;8.30;4.03;;;;;;;6.63;60.12;102103.81;6314627;28;20048;-71
2023/12/16 13:38:56;;;;;;;14.55;5.38;;;;;;;6.42;60.06;102091.94;6321544;28;20416;-76
2023/12/16 13:41:59;;;;;;;9.00;4.93;;;;;;;6.42;60.57;102109.22;6310294;28;20401;-76
2023/12/16 13:45:00;;;;;;;7.82;4.22;;;;;;;6.43;60.14;102101.44;6303897;28;20049;-75
2023/12/16 13:48:01;;;;;;;11.98;5.60;;;;;;;6.18;59.76;102108.63;6307809;28;20554;-76
2023/12/16 13:51:03;;;;;;;14.88;5.50;;;;;;;6.24;61.35;102094.75;6299055;28;20052;-72
2023/12/16 13:54:06;;;;;;;13.90;6.20;;;;;;;6.18;61.07;102097.41;6309964;28;20056;-71
2023/12/16 13:57:08;;;;;;;18.00;6.22;;;;;;;6.05;63.09;102094.94;6311258;28;20044;-71
2023/12/16 14:00:11;;;;;;;29.48;13.52;;;;;;;5.98;63.42;102111.38;6319904;28;20044;-75
2023/12/16 14:03:14;;;;;;;31.52;13.90;;;;;;;5.94;63.77;102108.81;6307372;28;20140;-76
2023/12/16 14:06:15;;;;;;;20.50;10.77;;;;;;;5.82;62.71;102105.44;6295903;28;20511;-71
2023/12/16 14:09:16;;;;;;;19.23;8.35;;;;;;;5.51;63.75;102106.56;6294943;28;20079;-71